createdAt,value
2023-04-22T00:01:50.081Z,1.60
2023-04-22T00:04:17.268Z,2.53
2023-04-22T00:06:45.603Z,2.20
2023-04-22T00:09:13.070Z,6.93
2023-04-22T00:11:40.667Z,3.73
2023-04-22T00:14:07.669Z,1.20
2023-04-22T00:16:34.753Z,1.93
2023-04-22T00:19:01.701Z,2.87
2023-04-22T00:21:29.012Z,2.20
2023-04-22T00:23:55.871Z,2.37
2023-04-22T00:26:22.792Z,2.40
2023-04-22T00:28:49.662Z,5.00
2023-04-22T00:31:16.702Z,3.73
2023-04-22T00:33:43.553Z,1.60
2023-04-22T00:36:13.203Z,2.10
2023-04-22T00:38:41.176Z,1.40
2023-04-22T00:41:08.499Z,0.97
2023-04-22T00:43:35.374Z,1.27
2023-04-22T00:46:02.698Z,1.13
2023-04-22T00:48:30.295Z,1.60
2023-04-22T00:50:57.183Z,1.10
2023-04-22T00:53:24.187Z,1.70
2023-04-22T00:55:51.225Z,2.37
2023-04-22T00:58:20.422Z,1.87
2023-04-22T01:00:47.489Z,1.37
2023-04-22T01:03:15.587Z,2.67
2023-04-22T01:05:43.389Z,3.20
2023-04-22T01:08:10.450Z,1.97
2023-04-22T01:10:37.517Z,1.13
2023-04-22T01:13:04.444Z,4.83
2023-04-22T01:15:31.363Z,3.20
2023-04-22T01:17:59.179Z,2.80
2023-04-22T01:20:32.073Z,2.90
2023-04-22T01:23:04.223Z,1.70
2023-04-22T01:25:31.261Z,1.77
2023-04-22T01:27:58.601Z,1.33
2023-04-22T01:30:26.071Z,2.40
2023-04-22T01:32:53.348Z,6.80
2023-04-22T01:35:25.892Z,15.63
2023-04-22T01:37:52.874Z,3.07
2023-04-22T01:40:22.673Z,4.07
2023-04-22T01:42:49.979Z,2.87
2023-04-22T01:45:17.571Z,5.23
2023-04-22T01:47:44.556Z,4.03
2023-04-22T01:50:11.476Z,2.70
2023-04-22T01:52:38.544Z,2.43
2023-04-22T01:55:06.174Z,2.67
2023-04-22T01:57:32.996Z,1.90
2023-04-22T02:00:00.336Z,2.47
2023-04-22T02:02:27.661Z,3.27
2023-04-22T02:04:54.885Z,2.40
2023-04-22T02:07:21.799Z,3.60
2023-04-22T02:09:50.990Z,2.23
2023-04-22T02:12:17.885Z,3.20
2023-04-22T02:14:44.762Z,2.10
2023-04-22T02:17:11.737Z,1.87
2023-04-22T02:19:39.219Z,2.47
2023-04-22T02:22:06.404Z,2.43
2023-04-22T02:24:33.268Z,2.07
2023-04-22T02:27:00.363Z,1.50
2023-04-22T02:29:27.354Z,1.10
2023-04-22T02:31:54.261Z,1.60
2023-04-22T02:34:21.536Z,1.33
2023-04-22T02:36:48.351Z,1.37
2023-04-22T02:39:15.327Z,3.33
2023-04-22T02:41:42.217Z,1.80
2023-04-22T02:44:09.233Z,2.03
2023-04-22T02:46:36.168Z,2.17
2023-04-22T02:49:03.093Z,1.90
2023-04-22T02:51:31.230Z,1.83
2023-04-22T02:53:58.182Z,1.97
2023-04-22T02:56:26.042Z,2.60
2023-04-22T02:58:52.922Z,1.93
2023-04-22T03:01:19.821Z,1.10
2023-04-22T03:03:46.822Z,2.17
2023-04-22T03:06:13.924Z,2.07
2023-04-22T03:08:40.793Z,2.13
2023-04-22T03:11:07.714Z,2.23
2023-04-22T03:13:34.565Z,2.87
2023-04-22T03:16:01.547Z,2.10
2023-04-22T03:18:28.466Z,3.23
2023-04-22T03:20:55.441Z,2.20
2023-04-22T03:23:22.442Z,2.43
2023-04-22T03:25:49.382Z,2.10
2023-04-22T03:28:16.280Z,1.90
2023-04-22T03:30:43.159Z,2.40
2023-04-22T03:33:11.595Z,3.60
2023-04-22T03:35:38.577Z,1.83
2023-04-22T03:38:05.458Z,2.00
2023-04-22T03:40:32.429Z,2.20
2023-04-22T03:42:59.316Z,2.43
2023-04-22T03:45:27.211Z,2.67
2023-04-22T03:47:54.078Z,2.13
2023-04-22T03:50:21.042Z,1.63
2023-04-22T03:52:48.250Z,2.17
2023-04-22T03:55:15.186Z,1.97
2023-04-22T03:57:42.048Z,2.03
2023-04-22T04:00:09.397Z,2.00
2023-04-22T04:02:36.322Z,2.03
2023-04-22T04:05:03.591Z,2.53
2023-04-22T04:07:30.704Z,2.17
2023-04-22T04:09:57.691Z,1.77
2023-04-22T04:12:24.584Z,2.07
2023-04-22T04:14:51.480Z,2.20
2023-04-22T04:17:18.423Z,1.93
2023-04-22T04:20:40.116Z,2.20
2023-04-22T04:23:09.978Z,1.90
2023-04-22T04:25:39.658Z,1.80
2023-04-22T04:28:11.213Z,2.27
2023-04-22T04:30:38.361Z,1.90
2023-04-22T04:33:06.791Z,2.47
2023-04-22T04:35:34.713Z,1.80
2023-04-22T04:38:02.383Z,1.90
2023-04-22T04:40:29.970Z,1.70
2023-04-22T04:42:57.513Z,1.50
2023-04-22T04:45:24.846Z,1.70
2023-04-22T04:47:52.918Z,2.37
2023-04-22T04:50:20.188Z,2.87
2023-04-22T04:52:48.903Z,4.00
2023-04-22T04:55:16.739Z,4.17
2023-04-22T04:57:47.082Z,4.33
2023-04-22T05:00:14.321Z,5.17
2023-04-22T05:02:41.645Z,7.60
2023-04-22T05:05:09.509Z,13.33
2023-04-22T05:07:36.452Z,6.30
2023-04-22T05:10:03.947Z,4.70
2023-04-22T05:12:30.883Z,4.47
2023-04-22T05:14:57.781Z,5.00
2023-04-22T05:17:24.960Z,3.03
2023-04-22T05:19:51.970Z,7.27
2023-04-22T05:22:19.344Z,8.33
2023-04-22T05:24:46.291Z,7.30
2023-04-22T05:27:16.840Z,7.00
2023-04-22T05:29:43.878Z,17.77
2023-04-22T05:32:10.976Z,10.00
2023-04-22T05:34:38.091Z,5.87
2023-04-22T05:37:05.774Z,6.10
2023-04-22T05:39:32.979Z,23.60
2023-04-22T05:42:00.110Z,7.83
2023-04-22T05:44:27.105Z,8.10
2023-04-22T05:46:54.336Z,9.77
2023-04-22T05:49:21.782Z,6.47
2023-04-22T05:51:48.979Z,7.80
2023-04-22T05:54:16.561Z,4.60
2023-04-22T05:56:43.684Z,8.80
2023-04-22T05:59:10.807Z,9.53
2023-04-22T06:01:37.971Z,7.37
2023-04-22T06:04:06.270Z,11.20
2023-04-22T06:06:33.581Z,8.40
2023-04-22T06:09:00.672Z,8.77
2023-04-22T06:11:28.531Z,7.53
2023-04-22T06:13:55.657Z,23.63
2023-04-22T06:16:23.454Z,19.53
2023-04-22T06:18:50.620Z,11.30
2023-04-22T06:21:17.678Z,27.93
2023-04-22T06:23:44.722Z,8.73
2023-04-22T06:26:12.408Z,5.77
2023-04-22T06:28:40.028Z,9.87
2023-04-22T06:31:07.094Z,7.67
2023-04-22T06:33:34.203Z,6.73
2023-04-22T06:36:01.230Z,9.57
2023-04-22T06:38:28.383Z,4.77
2023-04-22T06:40:58.267Z,5.73
2023-04-22T06:43:25.530Z,7.60
2023-04-22T06:45:52.697Z,6.67
2023-04-22T06:48:19.848Z,8.70
2023-04-22T06:50:46.976Z,9.03
2023-04-22T06:53:14.040Z,6.70
2023-04-22T06:55:43.983Z,7.03
2023-04-22T06:58:11.201Z,8.60
2023-04-22T07:00:45.242Z,6.00
2023-04-22T07:03:20.747Z,7.93
2023-04-22T07:06:10.773Z,6.80
2023-04-22T07:08:52.330Z,6.20
2023-04-22T07:11:19.330Z,8.20
2023-04-22T07:13:46.541Z,7.83
2023-04-22T07:16:13.771Z,7.70
2023-04-22T07:18:40.777Z,7.13
2023-04-22T07:21:07.718Z,6.07
2023-04-22T07:23:34.677Z,5.83
2023-04-22T07:26:01.840Z,6.33
2023-04-22T07:28:28.821Z,8.37
2023-04-22T07:30:55.686Z,6.53
2023-04-22T07:33:25.291Z,5.13
2023-04-22T07:35:52.308Z,5.80
2023-04-22T07:38:19.854Z,4.60
2023-04-22T07:40:46.801Z,3.80
2023-04-22T07:43:14.251Z,2.07
2023-04-22T07:45:41.308Z,2.00
2023-04-22T07:48:08.406Z,1.77
2023-04-22T07:50:38.700Z,1.73
2023-04-22T07:53:08.934Z,1.80
2023-04-22T07:55:36.295Z,1.43
2023-04-22T07:58:06.904Z,2.13
2023-04-22T08:00:36.645Z,1.70
2023-04-22T08:03:04.632Z,1.67
2023-04-22T08:05:31.810Z,1.33
2023-04-22T08:07:58.681Z,0.93
2023-04-22T08:10:26.123Z,1.60
2023-04-22T08:12:52.990Z,1.87
2023-04-22T08:15:19.899Z,2.00
2023-04-22T08:17:46.849Z,1.37
2023-04-22T08:20:15.483Z,1.40
2023-04-22T08:22:45.339Z,1.40
2023-04-22T08:25:12.329Z,1.20
2023-04-22T08:27:39.349Z,1.10
2023-04-22T08:30:07.699Z,1.23
2023-04-22T08:32:34.661Z,1.17
2023-04-22T08:35:04.933Z,1.27
2023-04-22T08:37:32.604Z,1.13
2023-04-22T08:39:59.546Z,1.20
2023-04-22T08:42:27.931Z,1.13
2023-04-22T08:44:55.058Z,1.00
2023-04-22T08:47:22.008Z,0.70
2023-04-22T08:49:51.547Z,1.00
2023-04-22T08:52:18.758Z,1.80
2023-04-22T08:54:46.065Z,1.10
2023-04-22T08:57:15.097Z,0.80
2023-04-22T08:59:42.498Z,1.43
2023-04-22T09:02:16.661Z,1.37
2023-04-22T09:04:46.767Z,0.90
2023-04-22T09:07:22.094Z,1.77
2023-04-22T09:09:49.157Z,1.90
2023-04-22T09:12:18.333Z,1.60
2023-04-22T09:14:45.738Z,1.30
2023-04-22T09:17:16.062Z,1.40
2023-04-22T09:19:43.078Z,1.50
2023-04-22T09:22:14.665Z,0.90
2023-04-22T09:24:44.452Z,1.70
2023-04-22T09:27:11.428Z,1.30
2023-04-22T09:29:38.871Z,0.87
2023-04-22T09:32:12.278Z,1.30
2023-04-22T09:34:51.968Z,1.00
2023-04-22T09:37:21.228Z,1.57
2023-04-22T09:39:52.006Z,1.37
2023-04-22T09:42:20.038Z,1.30
2023-04-22T09:44:49.027Z,1.37
2023-04-22T09:47:15.971Z,1.50
2023-04-22T09:49:47.127Z,1.83
2023-04-22T09:52:26.980Z,1.20
2023-04-22T09:54:54.676Z,1.47
2023-04-22T09:57:22.385Z,3.27
2023-04-22T09:59:53.021Z,1.37
2023-04-22T10:02:29.578Z,0.70
2023-04-22T10:04:58.395Z,3.40
2023-04-22T10:07:31.271Z,1.40
2023-04-22T10:09:58.441Z,10.60
2023-04-22T10:12:35.181Z,1.50
2023-04-22T10:15:07.738Z,1.50
2023-04-22T10:17:38.075Z,0.93
2023-04-22T10:20:13.530Z,1.33
2023-04-22T10:22:42.786Z,1.27
2023-04-22T10:25:28.584Z,0.90
2023-04-22T10:28:05.949Z,1.00
2023-04-22T10:30:36.763Z,1.00
2023-04-22T10:33:23.674Z,0.93
2023-04-22T10:36:11.345Z,1.40
2023-04-22T10:38:42.352Z,1.77
2023-04-22T10:41:16.329Z,1.90
2023-04-22T10:44:00.324Z,1.00
2023-04-22T10:46:34.761Z,2.27
2023-04-22T10:49:18.202Z,2.10
2023-04-22T10:51:47.516Z,1.77
2023-04-22T10:54:28.783Z,1.10
2023-04-22T10:57:08.197Z,1.27
2023-04-22T10:59:42.953Z,1.70
2023-04-22T11:02:13.152Z,1.70
2023-04-22T11:04:40.267Z,1.60
2023-04-22T11:07:29.882Z,1.70
2023-04-22T11:10:07.032Z,1.27
2023-04-22T11:12:39.786Z,0.93
2023-04-22T11:15:18.384Z,1.00
2023-04-22T11:17:46.726Z,1.23
2023-04-22T11:20:17.863Z,1.40
2023-04-22T11:22:50.880Z,1.50
2023-04-22T11:25:18.062Z,1.63
2023-04-22T11:27:45.732Z,1.33
2023-04-22T11:30:17.754Z,1.00
2023-04-22T11:32:46.977Z,1.40
2023-04-22T11:35:16.198Z,1.43
2023-04-22T11:37:51.490Z,2.27
2023-04-22T11:40:31.002Z,1.83
2023-04-22T11:43:00.367Z,3.60
2023-04-22T11:45:29.346Z,1.10
2023-04-22T11:47:56.720Z,1.20
2023-04-22T11:50:33.823Z,1.30
2023-04-22T11:53:20.923Z,1.07
2023-04-22T11:55:53.663Z,3.90
2023-04-22T11:58:24.298Z,1.23
2023-04-22T12:00:52.938Z,1.50
2023-04-22T12:03:25.679Z,1.33
2023-04-22T12:05:57.908Z,1.33
2023-04-22T12:08:26.856Z,1.47
2023-04-22T12:10:58.554Z,1.03
2023-04-22T12:13:36.219Z,0.70
2023-04-22T12:16:06.074Z,1.30
2023-04-22T12:18:35.090Z,1.10
2023-04-22T12:21:12.388Z,1.93
2023-04-22T12:23:48.162Z,1.53
2023-04-22T12:26:16.292Z,1.50
2023-04-22T12:28:44.439Z,1.20
2023-04-22T12:31:12.264Z,1.50
2023-04-22T12:33:39.348Z,1.03
2023-04-22T12:36:07.386Z,0.90
2023-04-22T12:38:35.106Z,1.70
2023-04-22T12:41:02.849Z,1.57
2023-04-22T12:43:32.205Z,1.33
2023-04-22T12:45:59.617Z,0.87
2023-04-22T12:48:26.516Z,0.87
2023-04-22T12:50:53.558Z,1.30
2023-04-22T12:53:21.456Z,1.57
2023-04-22T12:55:48.419Z,1.50
2023-04-22T12:58:15.677Z,1.30
2023-04-22T13:00:42.612Z,1.50
2023-04-22T13:03:09.641Z,1.77
2023-04-22T13:05:37.135Z,2.00
2023-04-22T13:08:07.838Z,1.87
2023-04-22T13:10:35.365Z,1.27
2023-04-22T13:13:17.883Z,1.40
2023-04-22T13:15:47.690Z,1.93
2023-04-22T13:18:16.642Z,2.33
2023-04-22T13:20:43.861Z,2.43
2023-04-22T13:23:11.327Z,1.73
2023-04-22T13:25:38.142Z,1.77
2023-04-22T13:28:05.279Z,3.00
2023-04-22T13:30:32.944Z,1.77
2023-04-22T13:32:59.849Z,2.17
2023-04-22T13:35:26.766Z,2.77
2023-04-22T13:37:53.670Z,2.57
2023-04-22T13:40:21.533Z,1.97
2023-04-22T13:42:48.455Z,2.80
2023-04-22T13:45:15.390Z,2.53
2023-04-22T13:47:42.324Z,1.50
2023-04-22T13:50:09.672Z,2.40
2023-04-22T13:52:36.924Z,2.23
2023-04-22T13:55:04.083Z,2.43
2023-04-22T13:57:31.198Z,2.83
2023-04-22T13:59:58.052Z,3.13
2023-04-22T14:02:25.026Z,3.30
2023-04-22T14:04:52.109Z,1.97
2023-04-22T14:07:19.038Z,2.70
2023-04-22T14:09:45.979Z,3.17
2023-04-22T14:12:13.333Z,1.93
2023-04-22T14:14:40.288Z,1.80
2023-04-22T14:17:07.361Z,2.60
2023-04-22T14:19:36.476Z,1.90
2023-04-22T14:22:03.334Z,1.33
2023-04-22T14:24:30.579Z,3.20
2023-04-22T14:27:01.449Z,2.03
2023-04-22T14:29:29.753Z,1.17
2023-04-22T14:31:58.119Z,1.20
2023-04-22T14:34:26.801Z,1.67
2023-04-22T14:36:53.788Z,1.60
2023-04-22T14:39:21.382Z,2.40
2023-04-22T14:41:48.515Z,2.50
2023-04-22T14:44:15.800Z,1.90
2023-04-22T14:46:42.624Z,1.20
2023-04-22T14:49:09.555Z,1.27
2023-04-22T14:51:36.610Z,2.83
2023-04-22T14:54:03.559Z,1.27
2023-04-22T14:56:30.535Z,1.30
2023-04-22T14:58:57.443Z,1.83
2023-04-22T15:01:24.389Z,2.53
2023-04-22T15:03:52.115Z,2.23
2023-04-22T15:06:19.245Z,1.57
2023-04-22T15:08:46.274Z,1.20
2023-04-22T15:11:13.151Z,1.90
2023-04-22T15:13:40.036Z,1.00
2023-04-22T15:16:07.095Z,2.73
2023-04-22T15:18:34.076Z,2.03
2023-04-22T15:21:03.246Z,1.53
2023-04-22T15:23:30.185Z,2.77
2023-04-22T15:25:57.117Z,1.60
2023-04-22T15:28:24.495Z,4.00
2023-04-22T15:30:51.477Z,1.90
2023-04-22T15:33:18.577Z,4.23
2023-04-22T15:35:47.536Z,2.60
2023-04-22T15:38:14.423Z,1.53
2023-04-22T15:40:41.263Z,1.37
2023-04-22T15:43:08.282Z,1.57
2023-04-22T15:45:35.648Z,1.60
2023-04-22T15:48:02.807Z,0.93
2023-04-22T15:50:29.720Z,2.00
2023-04-22T15:52:56.734Z,1.10
2023-04-22T15:55:23.736Z,1.07
2023-04-22T15:57:50.750Z,2.23
2023-04-22T16:00:17.851Z,1.40
2023-04-22T16:02:45.270Z,1.13
2023-04-22T16:05:13.948Z,1.80
2023-04-22T16:07:41.029Z,1.10
2023-04-22T16:10:09.055Z,1.87
2023-04-22T16:12:36.009Z,1.30
2023-04-22T16:15:02.952Z,1.43
2023-04-22T16:17:30.301Z,2.37
2023-04-22T16:19:57.251Z,1.70
2023-04-22T16:22:24.251Z,1.40
2023-04-22T16:24:51.359Z,2.33
2023-04-22T16:27:19.139Z,1.80
2023-04-22T16:29:46.441Z,1.97
2023-04-22T16:32:14.750Z,1.73
2023-04-22T16:34:41.734Z,2.47
2023-04-22T16:37:08.578Z,1.60
2023-04-22T16:39:35.497Z,1.00
2023-04-22T16:42:03.009Z,1.73
2023-04-22T16:44:30.306Z,1.47
2023-04-22T16:46:57.237Z,1.43
2023-04-22T16:49:24.142Z,1.10
2023-04-22T16:51:51.434Z,1.03
2023-04-22T16:54:18.363Z,1.57
2023-04-22T16:56:45.203Z,0.93
2023-04-22T16:59:12.068Z,1.20
2023-04-22T17:01:40.783Z,1.30
2023-04-22T17:04:08.559Z,1.40
2023-04-22T17:06:36.598Z,1.63
2023-04-22T17:09:06.286Z,1.40
2023-04-22T17:11:33.460Z,2.17
2023-04-22T17:14:00.393Z,3.50
2023-04-22T17:16:27.366Z,1.33
2023-04-22T17:18:54.494Z,2.47
2023-04-22T17:21:23.207Z,1.33
2023-04-22T17:23:50.660Z,1.80
2023-04-22T17:26:17.640Z,2.37
2023-04-22T17:28:44.499Z,2.03
2023-04-22T17:31:12.236Z,1.83
2023-04-22T17:33:40.776Z,1.57
2023-04-22T17:36:08.102Z,2.70
2023-04-22T17:38:35.407Z,1.80
2023-04-22T17:41:02.317Z,1.30
2023-04-22T17:43:29.226Z,1.93
2023-04-22T17:45:56.118Z,1.30
2023-04-22T17:48:22.986Z,1.93
2023-04-22T17:50:50.207Z,2.50
2023-04-22T17:53:17.216Z,1.20
2023-04-22T17:55:44.200Z,1.20
2023-04-22T17:58:11.131Z,5.20
2023-04-22T18:00:38.557Z,1.30
2023-04-22T18:03:06.095Z,1.30
2023-04-22T18:05:33.092Z,1.80
2023-04-22T18:08:02.607Z,2.27
2023-04-22T18:10:30.474Z,1.20
2023-04-22T18:12:57.524Z,0.87
2023-04-22T18:15:24.535Z,2.60
2023-04-22T18:17:51.575Z,1.07
2023-04-22T18:20:19.616Z,1.97
2023-04-22T18:22:52.096Z,1.47
2023-04-22T18:25:19.078Z,1.57
2023-04-22T18:27:46.271Z,2.43
2023-04-22T18:30:13.218Z,1.40
2023-04-22T18:32:40.245Z,1.50
2023-04-22T18:35:07.780Z,2.50
2023-04-22T18:37:34.975Z,1.07
2023-04-22T18:40:02.761Z,1.50
2023-04-22T18:42:30.154Z,1.53
2023-04-22T18:44:57.030Z,2.73
2023-04-22T18:47:23.958Z,2.30
2023-04-22T18:49:50.927Z,1.20
2023-04-22T18:52:18.090Z,1.20
2023-04-22T18:54:44.957Z,2.30
2023-04-22T18:57:12.067Z,1.20
2023-04-22T18:59:39.605Z,1.23
2023-04-22T19:02:06.641Z,1.00
2023-04-22T19:04:33.732Z,1.10
2023-04-22T19:07:00.855Z,1.50
2023-04-22T19:09:27.896Z,1.10
2023-04-22T19:11:55.486Z,1.13
2023-04-22T19:14:22.507Z,1.40
2023-04-22T19:16:49.409Z,1.30
2023-04-22T19:19:16.442Z,1.70
2023-04-22T19:21:43.757Z,1.10
2023-04-22T19:24:13.537Z,1.70
2023-04-22T19:26:41.217Z,1.30
2023-04-22T19:29:08.689Z,1.00
2023-04-22T19:31:35.667Z,1.03
2023-04-22T19:34:02.950Z,1.30
2023-04-22T19:36:29.941Z,1.50
2023-04-22T19:38:57.200Z,1.17
2023-04-22T19:41:24.447Z,0.70
2023-04-22T19:43:56.950Z,0.80
2023-04-22T19:46:23.960Z,1.10
2023-04-22T19:48:51.366Z,1.00
2023-04-22T19:51:19.614Z,1.40
2023-04-22T19:53:47.150Z,0.90
2023-04-22T19:56:15.021Z,1.00
2023-04-22T19:58:42.618Z,0.90
2023-04-22T20:01:09.729Z,0.90
2023-04-22T20:03:37.233Z,1.37
2023-04-22T20:06:05.191Z,1.37
2023-04-22T20:08:33.975Z,0.90
2023-04-22T20:11:01.037Z,1.00
2023-04-22T20:13:28.279Z,1.70
2023-04-22T20:15:55.566Z,1.13
2023-04-22T20:18:22.625Z,1.80
2023-04-22T20:20:53.099Z,1.10
2023-04-22T20:23:22.491Z,1.20
2023-04-22T20:25:50.977Z,1.00
2023-04-22T20:28:19.126Z,1.17
2023-04-22T20:30:46.708Z,0.90
2023-04-22T20:33:16.617Z,1.40
2023-04-22T20:35:46.055Z,1.40
2023-04-22T20:38:13.346Z,1.77
2023-04-22T20:40:41.099Z,1.50
2023-04-22T20:43:08.495Z,2.00
2023-04-22T20:45:35.408Z,1.33
2023-04-22T20:48:02.433Z,1.53
2023-04-22T20:50:33.381Z,2.40
2023-04-22T20:53:01.176Z,1.87
2023-04-22T20:55:28.056Z,2.33
2023-04-22T20:57:55.067Z,1.33
2023-04-22T21:00:22.362Z,1.23
2023-04-22T21:02:50.319Z,1.53
2023-04-22T21:05:17.924Z,1.30
2023-04-22T21:07:48.706Z,1.47
2023-04-22T21:10:16.021Z,1.30
2023-04-22T21:12:43.166Z,0.80
2023-04-22T21:15:10.893Z,1.03
2023-04-22T21:17:41.408Z,1.30
2023-04-22T21:20:11.421Z,1.23
2023-04-22T21:22:42.407Z,1.60
2023-04-22T21:25:09.862Z,2.27
2023-04-22T21:27:37.121Z,1.37
2023-04-22T21:30:04.468Z,1.93
2023-04-22T21:32:32.739Z,1.00
2023-04-22T21:35:03.142Z,1.37
2023-04-22T21:37:29.965Z,3.03
2023-04-22T21:39:56.861Z,1.87
2023-04-22T21:42:25.709Z,1.63
2023-04-22T21:44:52.563Z,2.17
2023-04-22T21:47:19.380Z,1.67
2023-04-22T21:49:46.972Z,2.03
2023-04-22T21:52:14.285Z,2.40
2023-04-22T21:54:41.395Z,1.63
2023-04-22T21:57:09.130Z,1.60
2023-04-22T21:59:35.970Z,1.30
2023-04-22T22:02:02.930Z,2.70
2023-04-22T22:04:29.990Z,1.00
2023-04-22T22:06:56.932Z,1.20
2023-04-22T22:09:23.822Z,1.50
2023-04-22T22:11:50.871Z,1.07
2023-04-22T22:14:17.742Z,1.23
2023-04-22T22:16:44.737Z,1.20
2023-04-22T22:19:11.798Z,2.33
2023-04-22T22:21:38.689Z,1.30
2023-04-22T22:24:05.900Z,1.87
2023-04-22T22:26:32.874Z,1.43
2023-04-22T22:28:59.769Z,1.30
2023-04-22T22:31:26.700Z,1.30
2023-04-22T22:33:53.630Z,1.30
2023-04-22T22:36:21.136Z,1.53
2023-04-22T22:38:48.229Z,1.10
2023-04-22T22:41:15.246Z,0.83
2023-04-22T22:43:42.100Z,1.90
2023-04-22T22:46:09.025Z,1.70
2023-04-22T22:48:36.140Z,1.07
2023-04-22T22:51:03.453Z,1.13
2023-04-22T22:53:30.554Z,1.23
2023-04-22T22:55:57.420Z,2.27
2023-04-22T22:58:24.298Z,1.40
2023-04-22T23:00:51.331Z,1.10
2023-04-22T23:03:19.847Z,1.27
2023-04-22T23:05:47.260Z,0.83
2023-04-22T23:08:14.813Z,1.20
2023-04-22T23:10:41.782Z,1.23
2023-04-22T23:13:08.626Z,0.87
2023-04-22T23:15:35.591Z,1.80
2023-04-22T23:18:02.443Z,1.30
2023-04-22T23:20:30.287Z,1.50
2023-04-22T23:22:57.588Z,1.10
2023-04-22T23:25:24.692Z,1.33
2023-04-22T23:27:52.762Z,1.97
2023-04-22T23:30:20.138Z,1.40
2023-04-22T23:32:48.271Z,1.03
2023-04-22T23:35:15.594Z,1.30
2023-04-22T23:37:45.879Z,2.43
2023-04-22T23:40:13.296Z,2.30
2023-04-22T23:42:40.395Z,2.10
2023-04-22T23:45:08.065Z,1.37
2023-04-22T23:47:35.159Z,2.90
2023-04-22T23:50:02.720Z,1.60
2023-04-22T23:52:29.588Z,1.40
2023-04-22T23:54:57.513Z,1.50
2023-04-22T23:57:24.627Z,1.00
2023-04-22T23:59:51.801Z,1.30
